Time;durP1;ratioP1;P1;durP2;ratioP2;P2;SDS_P1;SDS_P2;PMS_P1;PMS_P2;Temp;Humidity;BMP_temperature;BMP_pressure;BME280_temperature;BME280_humidity;BME280_pressure;Samples;Min_cycle;Max_cycle;Signal;HPM_P1;HPM_P2
2023/09/02 00:00:02;;;;;;;21.30;19.17;;;;;;;16.26;100.00;101468.50;4989728;28;20034;-66
2023/09/02 00:02:27;;;;;;;19.30;17.55;;;;;;;16.25;100.00;101465.00;4989555;28;20059;-67
2023/09/02 00:04:53;;;;;;;19.50;17.70;;;;;;;16.21;100.00;101457.94;4972454;28;20022;-66
2023/09/02 00:07:18;;;;;;;20.52;18.42;;;;;;;16.19;100.00;101459.66;4989050;28;20037;-65
2023/09/02 00:09:43;;;;;;;20.95;19.05;;;;;;;16.19;100.00;101459.66;4989875;28;20073;-66
2023/09/02 00:12:09;;;;;;;20.17;18.10;;;;;;;16.16;100.00;101457.88;4987991;28;20034;-66
2023/09/02 00:14:34;;;;;;;20.95;18.98;;;;;;;16.15;100.00;101452.63;4977120;28;20462;-67
2023/09/02 00:16:59;;;;;;;19.85;17.85;;;;;;;16.12;100.00;101453.41;4980402;28;20105;-66
2023/09/02 00:19:25;;;;;;;21.48;19.40;;;;;;;16.12;100.00;101452.56;4986015;28;20161;-66
2023/09/02 00:21:50;;;;;;;20.73;18.80;;;;;;;16.10;100.00;101454.25;4971949;28;20033;-66
2023/09/02 00:24:15;;;;;;;20.90;18.98;;;;;;;16.10;100.00;101454.25;4973829;28;20461;-67
2023/09/02 00:26:41;;;;;;;20.15;18.13;;;;;;;16.08;100.00;101452.47;4970280;28;20364;-67
2023/09/02 00:29:06;;;;;;;19.88;17.88;;;;;;;16.09;100.00;101453.38;4970137;28;20034;-65
2023/09/02 00:31:33;;;;;;;20.98;19.00;;;;;;;16.08;100.00;101452.47;4981573;28;20038;-66
2023/09/02 00:33:58;;;;;;;21.80;19.85;;;;;;;16.08;100.00;101457.72;4970940;28;20046;-66
2023/09/02 00:36:24;;;;;;;21.00;19.20;;;;;;;16.10;100.00;101455.13;4982087;28;20626;-67
2023/09/02 00:38:49;;;;;;;23.13;20.92;;;;;;;16.11;100.00;101456.00;4988476;28;20097;-67
2023/09/02 00:41:25;;;;;;;23.10;21.00;;;;;;;16.12;100.00;101458.66;4989377;28;20105;-67
2023/09/02 00:43:50;;;;;;;21.25;19.15;;;;;;;16.13;100.00;101456.94;4976272;28;20022;-67
2023/09/02 00:46:15;;;;;;;22.23;20.13;;;;;;;16.12;100.00;101463.88;4988481;28;20041;-67
2023/09/02 00:48:41;;;;;;;21.30;19.40;;;;;;;16.12;100.00;101468.25;4982454;28;20443;-67
2023/09/02 00:51:06;;;;;;;20.88;18.95;;;;;;;16.12;100.00;101469.09;4969739;28;20027;-66
2023/09/02 00:53:32;;;;;;;20.10;18.27;;;;;;;16.14;100.00;101461.28;4969078;28;20061;-66
2023/09/02 00:55:57;;;;;;;21.10;19.15;;;;;;;16.14;100.00;101458.69;4970064;28;20030;-66
2023/09/02 00:58:22;;;;;;;20.15;18.42;;;;;;;16.15;100.00;101463.06;4988775;28;20109;-67
2023/09/02 01:00:48;;;;;;;21.20;19.23;;;;;;;16.14;100.00;101466.50;4988219;28;20117;-67
2023/09/02 01:03:14;;;;;;;21.33;19.40;;;;;;;16.15;100.00;101458.72;4988581;28;20489;-67
2023/09/02 01:05:40;;;;;;;21.30;19.30;;;;;;;16.15;100.00;101460.44;4987310;28;20022;-67
2023/09/02 01:08:06;;;;;;;21.63;19.45;;;;;;;16.13;100.00;101468.28;4988734;28;20077;-67
2023/09/02 01:10:36;;;;;;;21.15;19.27;;;;;;;16.14;100.00;101466.50;4988096;28;20062;-66
2023/09/02 01:13:03;;;;;;;18.98;17.38;;;;;;;16.12;100.00;101473.47;4981183;28;20023;-67
2023/09/02 01:15:30;;;;;;;21.13;18.75;;;;;;;16.11;100.00;101462.13;4988658;28;20129;-67
2023/09/02 01:17:55;;;;;;;20.10;18.25;;;;;;;16.12;100.00;101468.25;4988582;28;20019;-67
2023/09/02 01:20:27;;;;;;;21.75;19.60;;;;;;;16.12;100.00;101473.47;4985174;28;20362;-66
2023/09/02 01:22:58;;;;;;;22.92;20.83;;;;;;;16.10;100.00;101480.41;4986995;28;20081;-67
2023/09/02 01:25:38;;;;;;;21.50;19.60;;;;;;;16.10;100.00;101481.25;4970850;28;20043;-67
2023/09/02 01:28:16;;;;;;;20.90;18.77;;;;;;;16.07;100.00;101482.09;4969143;28;20294;-67
2023/09/02 01:30:45;;;;;;;22.15;19.52;;;;;;;16.07;100.00;101482.09;4975871;28;20026;-66
2023/09/02 01:33:11;;;;;;;21.77;19.58;;;;;;;16.08;100.00;101478.63;4969440;28;20022;-67
2023/09/02 01:35:37;;;;;;;22.27;20.20;;;;;;;16.08;100.00;101476.00;4981731;28;20040;-65
2023/09/02 01:38:05;;;;;;;21.50;19.60;;;;;;;16.08;100.00;101477.75;4979122;28;20089;-66
2023/09/02 01:40:32;;;;;;;21.35;19.45;;;;;;;16.06;100.00;101471.63;4991284;28;20359;-66
2023/09/02 01:42:59;;;;;;;22.25;20.00;;;;;;;16.05;100.00;101477.69;4976860;28;20019;-67
2023/09/02 01:45:27;;;;;;;21.92;19.85;;;;;;;16.03;100.00;101480.28;4985543;28;20061;-67
2023/09/02 01:47:53;;;;;;;23.17;20.88;;;;;;;16.01;100.00;101474.13;4984543;28;20388;-67
2023/09/02 01:50:22;;;;;;;22.85;20.75;;;;;;;16.01;100.00;101479.34;4985070;28;20031;-66
2023/09/02 01:52:47;;;;;;;23.13;21.00;;;;;;;16.00;100.00;101484.56;4986794;28;20034;-67
2023/09/02 01:55:13;;;;;;;22.88;20.63;;;;;;;16.01;100.00;101483.72;4984832;28;20420;-66
2023/09/02 01:57:39;;;;;;;23.95;21.40;;;;;;;16.00;100.00;101488.06;4986084;28;20023;-67
2023/09/02 02:00:05;;;;;;;22.98;20.83;;;;;;;16.00;100.00;101493.28;4968851;28;20027;-67
2023/09/02 02:02:31;;;;;;;24.05;21.80;;;;;;;16.00;100.00;101484.56;4981911;28;20026;-67
2023/09/02 02:04:59;;;;;;;23.50;21.27;;;;;;;15.99;100.00;101478.44;4987370;28;20027;-67
2023/09/02 02:07:33;;;;;;;25.40;22.80;;;;;;;16.00;100.00;101489.78;4986194;28;20458;-67
2023/09/02 02:10:00;;;;;;;24.42;22.13;;;;;;;16.00;100.00;101493.28;4968045;28;20026;-67
2023/09/02 02:12:27;;;;;;;23.95;21.73;;;;;;;16.02;100.00;101493.31;4981481;28;20049;-66
2023/09/02 02:14:53;;;;;;;23.60;21.40;;;;;;;16.01;100.00;101492.41;4968774;28;20034;-66
2023/09/02 02:17:18;;;;;;;22.42;20.30;;;;;;;16.01;100.00;101492.41;4970970;28;20034;-67
2023/09/02 02:19:44;;;;;;;22.38;20.42;;;;;;;15.99;100.00;101499.34;4990583;28;20470;-67
2023/09/02 02:22:10;;;;;;;24.38;21.75;;;;;;;15.98;100.00;101497.56;4990323;28;20010;-67
2023/09/02 02:24:35;;;;;;;22.77;20.58;;;;;;;15.99;100.00;101499.34;4991144;28;20033;-67
2023/09/02 02:27:02;;;;;;;22.20;19.90;;;;;;;15.99;100.00;101501.06;4990425;28;20038;-66
2023/09/02 02:29:27;;;;;;;24.45;19.85;;;;;;;15.98;100.00;101500.19;4991009;28;20053;-66
2023/09/02 02:31:52;;;;;;;23.75;21.15;;;;;;;15.97;100.00;101495.81;4976032;28;20039;-66
2023/09/02 02:34:17;;;;;;;23.25;20.85;;;;;;;15.97;100.00;101498.44;4978611;28;20034;-65
2023/09/02 02:36:43;;;;;;;22.65;20.35;;;;;;;15.97;100.00;101501.91;4978376;28;20038;-67
2023/09/02 02:39:09;;;;;;;22.48;20.10;;;;;;;15.96;100.00;101510.59;4972653;28;20379;-66
2023/09/02 02:41:34;;;;;;;21.95;19.85;;;;;;;15.96;100.00;101509.72;4973851;28;20478;-67
2023/09/02 02:44:00;;;;;;;22.85;19.83;;;;;;;15.95;100.00;101506.25;4978469;28;20030;-67
2023/09/02 02:46:25;;;;;;;22.85;20.45;;;;;;;15.95;100.00;101508.84;4990079;28;20539;-66
2023/09/02 02:48:51;;;;;;;22.75;20.52;;;;;;;15.95;100.00;101508.84;4972577;28;20048;-66
2023/09/02 02:51:16;;;;;;;22.90;20.55;;;;;;;15.97;100.00;101511.50;4974393;28;20034;-66
2023/09/02 02:53:41;;;;;;;21.80;19.83;;;;;;;15.98;100.00;101513.25;4972815;28;20030;-66
2023/09/02 02:56:07;;;;;;;21.75;19.73;;;;;;;16.00;100.00;101511.59;4976358;28;20394;-67
2023/09/02 02:58:32;;;;;;;21.25;19.25;;;;;;;16.00;100.00;101511.59;4973067;28;20390;-67
2023/09/02 03:01:05;;;;;;;21.52;19.40;;;;;;;15.99;100.00;101515.03;4975100;28;20456;-66
2023/09/02 03:03:31;;;;;;;20.95;19.05;;;;;;;16.00;100.00;101514.19;4973731;28;20360;-67
2023/09/02 03:05:57;;;;;;;20.15;17.90;;;;;;;16.00;100.00;101511.59;4974372;28;20037;-66
2023/09/02 03:08:22;;;;;;;20.25;18.30;;;;;;;15.99;100.00;101514.13;4973628;28;20031;-67
2023/09/02 03:10:56;;;;;;;20.55;18.55;;;;;;;15.98;100.00;101508.00;4985848;28;20355;-67
2023/09/02 03:13:21;;;;;;;20.75;18.55;;;;;;;15.99;100.00;101504.56;4973533;28;20033;-67
2023/09/02 03:15:50;;;;;;;20.60;18.58;;;;;;;15.99;100.00;101508.91;4978564;28;20105;-67
2023/09/02 03:18:16;;;;;;;20.13;18.23;;;;;;;15.97;100.00;101511.50;4980210;28;20050;-67
2023/09/02 03:20:41;;;;;;;20.50;17.75;;;;;;;15.95;100.00;101508.84;4975043;28;20030;-66
2023/09/02 03:23:06;;;;;;;20.38;18.25;;;;;;;15.94;100.00;101508.78;4973066;28;20019;-67
2023/09/02 03:25:32;;;;;;;20.65;18.63;;;;;;;15.92;100.00;101508.75;4974554;28;20470;-67
2023/09/02 03:28:00;;;;;;;18.70;16.80;;;;;;;15.91;100.00;101512.25;4972477;28;20055;-66
2023/09/02 03:30:25;;;;;;;18.75;16.17;;;;;;;15.91;100.00;101511.34;4974491;28;20030;-66
2023/09/02 03:32:50;;;;;;;17.48;15.88;;;;;;;15.89;100.00;101513.03;4970695;28;20030;-67
2023/09/02 03:35:15;;;;;;;17.80;16.20;;;;;;;15.89;100.00;101510.44;4972751;28;20365;-67
2023/09/02 03:37:43;;;;;;;18.05;16.35;;;;;;;15.89;100.00;101518.28;4980333;28;20035;-67
2023/09/02 03:40:08;;;;;;;17.40;15.57;;;;;;;15.87;100.00;101526.09;4973223;28;20034;-67
2023/09/02 03:42:33;;;;;;;17.48;15.77;;;;;;;15.87;100.00;101525.19;4989695;28;20033;-67
2023/09/02 03:44:59;;;;;;;19.80;18.02;;;;;;;15.88;100.00;101514.81;4989288;28;20022;-67
2023/09/02 03:47:24;;;;;;;20.20;18.23;;;;;;;15.88;100.00;101524.38;4989149;28;20420;-67
2023/09/02 03:49:51;;;;;;;19.75;17.80;;;;;;;15.89;100.00;101533.97;4991909;28;20018;-66
2023/09/02 03:52:16;;;;;;;18.27;16.67;;;;;;;15.87;100.00;101530.44;4989579;28;20385;-66
2023/09/02 03:54:41;;;;;;;19.10;17.42;;;;;;;15.88;100.00;101533.09;4972811;28;20022;-67
2023/09/02 03:57:07;;;;;;;19.38;17.33;;;;;;;15.89;100.00;101533.97;4979794;28;20545;-67
2023/09/02 03:59:32;;;;;;;19.48;17.50;;;;;;;15.89;100.00;101529.63;4969818;28;20055;-66
2023/09/02 04:01:57;;;;;;;18.85;17.02;;;;;;;15.88;100.00;101537.44;4970066;28;20026;-66
2023/09/02 04:04:24;;;;;;;19.35;17.75;;;;;;;15.87;100.00;101527.81;4969958;28;20041;-67
2023/09/02 04:06:49;;;;;;;20.50;18.70;;;;;;;15.87;100.00;101530.44;4970692;28;20496;-67
2023/09/02 04:09:15;;;;;;;21.67;19.52;;;;;;;15.86;100.00;101524.34;4970486;28;20026;-67
2023/09/02 04:11:40;;;;;;;20.10;18.25;;;;;;;15.88;100.00;101532.22;4969986;28;20498;-67
2023/09/02 04:14:05;;;;;;;21.85;19.73;;;;;;;15.87;100.00;101530.44;4970959;28;20656;-67
2023/09/02 04:16:31;;;;;;;20.58;18.10;;;;;;;15.87;100.00;101533.03;4969505;28;20090;-66
2023/09/02 04:18:56;;;;;;;20.58;18.58;;;;;;;15.88;100.00;101532.22;4970723;28;20030;-66
2023/09/02 04:21:22;;;;;;;20.08;18.25;;;;;;;15.88;100.00;101537.44;4970568;28;20035;-66
2023/09/02 04:23:47;;;;;;;20.40;18.35;;;;;;;15.85;100.00;101536.50;4970268;28;20015;-66
2023/09/02 04:26:14;;;;;;;19.52;17.02;;;;;;;15.85;100.00;101539.13;4969596;28;20034;-66
2023/09/02 04:28:39;;;;;;;18.95;17.15;;;;;;;15.86;100.00;101540.00;4969396;28;20168;-67
2023/09/02 04:31:05;;;;;;;19.27;17.33;;;;;;;15.84;100.00;101537.38;4970054;28;20497;-67
2023/09/02 04:33:30;;;;;;;17.23;15.73;;;;;;;15.84;100.00;101537.38;4969322;28;20027;-67
2023/09/02 04:35:55;;;;;;;18.20;16.30;;;;;;;15.84;100.00;101534.75;4977492;28;20417;-67
2023/09/02 04:38:21;;;;;;;18.00;16.08;;;;;;;15.83;100.00;101534.72;4974395;28;20134;-66
2023/09/02 04:40:46;;;;;;;17.50;15.85;;;;;;;15.82;100.00;101543.41;4968916;28;20141;-67
2023/09/02 04:43:13;;;;;;;17.13;15.65;;;;;;;15.80;100.00;101535.53;4969720;28;20023;-67
2023/09/02 04:45:40;;;;;;;18.02;15.43;;;;;;;15.81;100.00;101547.75;4968920;28;20037;-66
2023/09/02 04:48:06;;;;;;;18.48;15.35;;;;;;;15.81;100.00;101537.28;4968585;28;20391;-67
2023/09/02 04:50:33;;;;;;;15.60;14.20;;;;;;;15.83;100.00;101543.44;4967507;28;20034;-67
2023/09/02 04:52:59;;;;;;;16.15;14.63;;;;;;;15.83;100.00;101547.81;4966954;28;20436;-67
2023/09/02 04:55:25;;;;;;;13.98;12.55;;;;;;;15.83;100.00;101545.19;4968202;28;20062;-66
2023/09/02 04:57:52;;;;;;;15.77;14.18;;;;;;;15.82;100.00;101548.63;4980597;28;20030;-67
2023/09/02 05:00:17;;;;;;;15.15;13.70;;;;;;;15.82;100.00;101553.84;4966327;28;20027;-64
2023/09/02 05:02:44;;;;;;;14.18;12.70;;;;;;;15.82;100.00;101546.00;4967038;28;20023;-67
2023/09/02 05:05:10;;;;;;;15.25;13.07;;;;;;;15.82;100.00;101549.53;4977480;28;20044;-67
2023/09/02 05:07:35;;;;;;;13.63;12.20;;;;;;;15.80;100.00;101551.22;4981115;28;20037;-67
2023/09/02 05:10:01;;;;;;;14.25;12.30;;;;;;;15.79;100.00;101559.91;4982725;28;20046;-67
2023/09/02 05:12:27;;;;;;;15.00;12.38;;;;;;;15.80;100.00;101556.44;4979846;28;20031;-66
2023/09/02 05:14:52;;;;;;;13.10;11.75;;;;;;;15.81;100.00;101560.81;4981210;28;20041;-66
2023/09/02 05:17:17;;;;;;;14.35;11.70;;;;;;;15.81;100.00;101563.41;4982154;28;20026;-65
2023/09/02 05:19:43;;;;;;;13.45;12.23;;;;;;;15.80;100.00;101560.78;4982585;28;20030;-66
2023/09/02 05:22:09;;;;;;;15.00;12.45;;;;;;;15.80;100.00;101560.78;4975240;28;20022;-67
2023/09/02 05:24:34;;;;;;;12.77;11.48;;;;;;;15.77;100.00;101569.44;4977371;28;20220;-66
2023/09/02 05:26:59;;;;;;;13.68;12.32;;;;;;;15.78;100.00;101578.13;4975417;28;20142;-67
2023/09/02 05:29:25;;;;;;;15.48;12.38;;;;;;;15.77;100.00;101579.91;4978684;28;20018;-66
2023/09/02 05:31:50;;;;;;;15.43;11.82;;;;;;;15.77;100.00;101582.50;4969637;28;20478;-67
2023/09/02 05:34:15;;;;;;;11.85;10.75;;;;;;;15.76;100.00;101588.56;4979726;28;20034;-66
2023/09/02 05:36:40;;;;;;;12.75;11.45;;;;;;;15.77;100.00;101592.06;4972624;28;20072;-67
2023/09/02 05:39:06;;;;;;;13.00;11.45;;;;;;;15.75;100.00;101597.25;4983253;28;20367;-67
2023/09/02 05:41:31;;;;;;;12.35;11.15;;;;;;;15.78;100.00;101594.72;4975747;28;20030;-67
2023/09/02 05:43:56;;;;;;;12.05;10.85;;;;;;;15.80;100.00;101602.56;4987594;28;20022;-65
2023/09/02 05:46:22;;;;;;;12.25;11.10;;;;;;;15.81;100.00;101605.22;4974645;28;20026;-67
2023/09/02 05:48:47;;;;;;;11.38;10.38;;;;;;;15.83;100.00;101603.53;4969213;28;20467;-67
2023/09/02 05:51:12;;;;;;;11.18;10.18;;;;;;;15.84;100.00;101605.31;4969998;28;20470;-67
2023/09/02 05:53:37;;;;;;;13.57;10.25;;;;;;;15.86;100.00;101602.72;4971637;28;20031;-66
2023/09/02 05:56:03;;;;;;;12.75;11.65;;;;;;;15.89;100.00;101601.91;4974376;28;20031;-67
2023/09/02 05:58:28;;;;;;;12.52;10.75;;;;;;;15.90;100.00;101606.28;4973319;28;20106;-67
2023/09/02 06:00:53;;;;;;;12.65;11.35;;;;;;;15.91;100.00;101605.44;4973411;28;20086;-67
2023/09/02 06:03:19;;;;;;;13.40;10.85;;;;;;;15.93;100.00;101607.25;4972886;28;20054;-67
2023/09/02 06:05:44;;;;;;;13.43;11.88;;;;;;;15.96;100.00;101603.81;4973650;28;20033;-67
2023/09/02 06:08:09;;;;;;;12.77;11.55;;;;;;;16.00;100.00;101605.69;4973424;28;20042;-67
2023/09/02 06:10:35;;;;;;;12.10;10.90;;;;;;;16.03;100.00;101604.88;4973330;28;20034;-67
2023/09/02 06:13:00;;;;;;;12.10;11.02;;;;;;;16.06;100.00;101608.41;4972317;28;20027;-67
2023/09/02 06:15:26;;;;;;;12.52;11.40;;;;;;;16.08;100.00;101613.69;4972566;28;20114;-68
2023/09/02 06:17:51;;;;;;;13.25;11.82;;;;;;;16.11;100.00;101618.09;4972319;28;20027;-68
2023/09/02 06:20:20;;;;;;;12.10;10.95;;;;;;;16.13;100.00;101627.75;4972899;28;20449;-66
2023/09/02 06:22:45;;;;;;;12.50;11.27;;;;;;;16.17;100.00;101629.56;4972192;28;20373;-67
2023/09/02 06:25:10;;;;;;;12.20;10.85;;;;;;;16.22;100.00;101631.38;4972725;28;20109;-68
2023/09/02 06:27:36;;;;;;;16.17;11.93;;;;;;;16.25;100.00;101632.34;4971771;28;20489;-67
2023/09/02 06:30:02;;;;;;;12.38;11.20;;;;;;;16.30;100.00;101638.53;4998295;28;20044;-67
2023/09/02 06:32:28;;;;;;;12.43;11.18;;;;;;;16.35;100.00;101643.00;4984560;28;20038;-67
2023/09/02 06:34:55;;;;;;;12.88;11.68;;;;;;;16.38;100.00;101640.44;4985075;28;20093;-67
2023/09/02 06:37:21;;;;;;;12.52;11.30;;;;;;;16.40;100.00;101646.59;4981797;28;20077;-68
2023/09/02 06:39:51;;;;;;;13.27;12.07;;;;;;;16.43;100.00;101651.88;4981730;28;20038;-67
2023/09/02 06:42:16;;;;;;;13.40;12.20;;;;;;;16.44;100.00;101654.53;4975278;28;20038;-67
2023/09/02 06:44:42;;;;;;;13.88;12.52;;;;;;;16.47;100.00;101656.31;4977939;28;20382;-67
2023/09/02 06:47:07;;;;;;;13.50;12.30;;;;;;;16.48;100.00;101665.94;4978027;28;20064;-67
2023/09/02 06:49:33;;;;;;;13.77;12.38;;;;;;;16.52;100.00;101678.22;4980659;28;20077;-67
2023/09/02 06:51:58;;;;;;;13.52;12.23;;;;;;;16.54;100.00;101681.75;4971556;28;20604;-66
2023/09/02 06:54:23;;;;;;;13.98;12.68;;;;;;;16.60;100.00;101677.50;4971787;28;20046;-67
2023/09/02 06:56:50;;;;;;;13.85;12.55;;;;;;;16.63;100.00;101691.53;4972371;28;20485;-67
2023/09/02 06:59:15;;;;;;;12.85;11.65;;;;;;;16.66;100.00;101695.94;4972863;28;20035;-66
2023/09/02 07:01:41;;;;;;;12.43;11.43;;;;;;;16.64;100.00;101698.50;4971737;28;20519;-67
2023/09/02 07:04:06;;;;;;;13.77;12.65;;;;;;;16.62;100.00;101713.28;4971368;28;20022;-67
2023/09/02 07:06:31;;;;;;;13.88;12.68;;;;;;;16.61;100.00;101714.16;4971904;28;20031;-68
2023/09/02 07:08:56;;;;;;;14.82;13.43;;;;;;;16.56;100.00;101711.47;4972295;28;20031;-66
2023/09/02 07:11:22;;;;;;;18.83;14.48;;;;;;;16.61;100.00;101708.94;4978309;28;20105;-67
2023/09/02 07:13:47;;;;;;;15.70;14.23;;;;;;;16.67;100.00;101718.66;4977132;28;20031;-67
2023/09/02 07:16:12;;;;;;;16.75;14.77;;;;;;;16.75;100.00;101724.91;4970936;28;20442;-67
2023/09/02 07:18:38;;;;;;;20.67;17.58;;;;;;;16.73;100.00;101729.22;4971357;28;20054;-66
2023/09/02 07:21:05;;;;;;;19.80;17.83;;;;;;;16.77;100.00;101731.06;4971503;28;20034;-67
2023/09/02 07:23:32;;;;;;;20.20;18.38;;;;;;;16.83;100.00;101742.50;4971710;28;20023;-67
2023/09/02 07:26:03;;;;;;;19.63;17.98;;;;;;;16.89;100.00;101730.41;4971353;28;20058;-66
2023/09/02 07:28:28;;;;;;;;;;;;;;;16.98;100.00;101734.94;4972096;28;20502;-67
2023/09/02 07:30:58;;;;;;;20.27;18.35;;;;;;;17.08;100.00;101738.63;4976941;28;19917;-66
2023/09/02 07:33:24;;;;;;;20.90;18.60;;;;;;;17.15;100.00;101737.03;4976858;28;20041;-67
2023/09/02 07:35:49;;;;;;;21.30;19.50;;;;;;;17.19;100.00;101737.97;4970810;28;20019;-67
2023/09/02 07:38:14;;;;;;;20.70;18.77;;;;;;;17.19;100.00;101741.50;4971038;28;20030;-67
2023/09/02 07:40:41;;;;;;;19.58;17.75;;;;;;;17.22;100.00;101738.94;4977727;28;20026;-68
2023/09/02 07:43:06;;;;;;;21.10;18.95;;;;;;;17.22;100.00;101743.28;4989101;28;20430;-67
2023/09/02 07:45:31;;;;;;;21.30;19.38;;;;;;;17.25;100.00;101746.84;4989811;28;20081;-67
2023/09/02 07:47:56;;;;;;;19.77;18.17;;;;;;;17.30;100.00;101756.53;4982976;28;20034;-65
2023/09/02 07:50:22;;;;;;;20.45;18.48;;;;;;;17.32;100.00;101760.06;4989778;28;20077;-67
2023/09/02 07:52:48;;;;;;;19.90;18.08;;;;;;;17.35;100.00;101754.88;4989212;28;20053;-67
2023/09/02 07:55:14;;;;;;;19.58;17.95;;;;;;;17.40;100.00;101763.69;4989337;28;20026;-67
2023/09/02 07:57:39;;;;;;;20.25;18.35;;;;;;;17.43;100.00;101766.34;4971291;28;20545;-68
2023/09/02 08:00:05;;;;;;;20.02;18.33;;;;;;;17.46;100.00;101766.44;4989644;28;20402;-67
2023/09/02 08:02:30;;;;;;;22.25;20.35;;;;;;;17.50;100.00;101768.22;4976124;28;20451;-68
2023/09/02 08:04:55;;;;;;;24.55;22.38;;;;;;;17.53;100.00;101764.78;4970903;28;20040;-67
2023/09/02 08:07:21;;;;;;;24.10;22.02;;;;;;;17.57;100.00;101770.97;4972252;28;20463;-68
2023/09/02 08:09:50;;;;;;;26.15;24.00;;;;;;;17.61;100.00;101764.94;4974106;28;20019;-67
2023/09/02 08:12:15;;;;;;;26.77;24.02;;;;;;;17.66;100.00;101770.25;4970429;28;20030;-67
2023/09/02 08:14:40;;;;;;;26.60;24.33;;;;;;;17.68;100.00;101772.06;4968867;28;20030;-66
2023/09/02 08:17:05;;;;;;;26.65;24.25;;;;;;;17.69;100.00;101776.44;4983724;28;20478;-67
2023/09/02 08:19:31;;;;;;;26.50;24.20;;;;;;;17.71;100.00;101777.34;4981587;28;20648;-67
2023/09/02 08:21:57;;;;;;;26.02;23.83;;;;;;;17.74;100.00;101777.38;4983175;28;20037;-66
2023/09/02 08:24:22;;;;;;;27.58;25.20;;;;;;;17.78;100.00;101775.69;4981159;28;20475;-68
2023/09/02 08:26:47;;;;;;;27.33;24.92;;;;;;;17.85;100.00;101781.91;4978555;28;20049;-67
2023/09/02 08:29:12;;;;;;;27.33;24.92;;;;;;;17.85;100.00;101774.06;4976864;28;20050;-68
2023/09/02 08:31:37;;;;;;;26.13;23.85;;;;;;;17.86;100.00;101774.06;4972912;28;20035;-66
2023/09/02 08:34:03;;;;;;;31.05;28.45;;;;;;;17.90;100.00;101775.00;4987470;28;20030;-68
2023/09/02 08:36:28;;;;;;;31.05;28.35;;;;;;;17.93;100.00;101785.56;4975735;28;20027;-67
2023/09/02 08:38:53;;;;;;;32.13;29.40;;;;;;;17.94;100.00;101792.56;4969109;28;20482;-67
2023/09/02 08:41:26;;;;;;;29.98;27.45;;;;;;;17.95;100.00;101796.06;4968776;28;20027;-66
2023/09/02 08:43:55;;;;;;;32.47;29.67;;;;;;;17.96;100.00;101793.47;4981628;28;20015;-67
2023/09/02 08:46:23;;;;;;;32.95;30.25;;;;;;;17.97;100.00;101795.22;4980536;28;20034;-67
2023/09/02 08:48:49;;;;;;;32.10;29.50;;;;;;;18.00;100.00;101797.94;4969932;28;20050;-67
2023/09/02 08:51:15;;;;;;;34.38;31.48;;;;;;;18.02;100.00;101799.69;4985639;28;20030;-67
2023/09/02 08:53:42;;;;;;;35.35;32.45;;;;;;;18.07;100.00;101809.38;4975146;28;20469;-66
2023/09/02 08:56:08;;;;;;;33.45;30.75;;;;;;;18.11;100.00;101798.06;4982969;28;20438;-67
2023/09/02 08:58:34;;;;;;;34.72;31.83;;;;;;;18.14;100.00;101805.16;4985298;28;20022;-67
2023/09/02 09:01:01;;;;;;;34.17;31.40;;;;;;;18.17;100.00;101807.81;4978062;28;20530;-67
2023/09/02 09:03:29;;;;;;;36.08;32.97;;;;;;;18.18;100.00;101812.22;4972792;28;20023;-68
2023/09/02 09:05:55;;;;;;;34.03;31.23;;;;;;;18.17;100.00;101812.19;4972568;28;20037;-68
2023/09/02 09:08:22;;;;;;;34.08;31.17;;;;;;;18.15;100.00;101814.75;4973059;28;20023;-67
2023/09/02 09:10:48;;;;;;;35.50;32.50;;;;;;;18.12;100.00;101818.22;4976527;28;20039;-68
2023/09/02 09:13:16;;;;;;;36.78;33.70;;;;;;;18.09;100.00;101822.53;4974402;28;20043;-68
2023/09/02 09:15:42;;;;;;;38.58;35.38;;;;;;;18.08;100.00;101818.16;4975909;28;20022;-68
2023/09/02 09:18:11;;;;;;;39.15;36.00;;;;;;;18.05;100.00;101825.94;4957579;28;20046;-67
2023/09/02 09:20:37;;;;;;;40.88;37.45;;;;;;;18.04;100.00;101819.84;4975565;28;20430;-66
2023/09/02 09:23:07;;;;;;;41.15;37.85;;;;;;;18.07;100.00;101818.97;4975714;28;20026;-68
2023/09/02 09:25:33;;;;;;;38.53;35.42;;;;;;;18.13;100.00;101814.72;4975450;28;20023;-67
2023/09/02 09:28:12;;;;;;;37.08;33.78;;;;;;;18.23;100.00;101821.03;4982138;28;20046;-67
2023/09/02 09:30:38;;;;;;;35.03;31.92;;;;;;;18.31;100.00;101821.13;4987820;28;20480;-65
2023/09/02 09:33:07;;;;;;;33.40;30.60;;;;;;;18.42;100.00;101821.28;4986520;28;20390;-68
2023/09/02 09:35:33;;;;;;;36.00;32.80;;;;;;;18.52;100.00;101832.81;4994307;28;20085;-68
2023/09/02 09:37:59;;;;;;;37.47;34.10;;;;;;;18.59;100.00;101828.53;4988407;28;20105;-67
2023/09/02 09:40:34;;;;;;;35.67;32.58;;;;;;;18.59;100.00;101839.03;4986624;28;20113;-67
2023/09/02 09:43:01;;;;;;;35.38;32.38;;;;;;;18.67;100.00;101855.75;4993395;28;20026;-68
2023/09/02 09:45:27;;;;;;;35.53;32.42;;;;;;;18.72;100.00;101862.00;4991413;28;20088;-68
2023/09/02 09:47:55;;;;;;;34.28;31.42;;;;;;;18.76;100.00;101867.28;4992348;28;20282;-67
2023/09/02 09:50:20;;;;;;;34.83;31.85;;;;;;;18.77;100.00;101863.78;4990083;28;20617;-68
2023/09/02 09:53:01;;;;;;;34.67;31.67;;;;;;;18.77;100.00;101871.66;4985851;28;20038;-68
2023/09/02 09:55:27;;;;;;;33.78;30.88;;;;;;;18.89;100.00;101871.81;4988441;28;20085;-68
2023/09/02 09:57:54;;;;;;;33.95;30.95;;;;;;;19.03;100.00;101860.63;4987422;28;20324;-67
2023/09/02 10:00:19;;;;;;;34.88;31.83;;;;;;;19.07;100.00;101867.66;4991447;28;20019;-67
2023/09/02 10:02:56;;;;;;;33.13;30.42;;;;;;;19.13;100.00;101856.41;4989647;28;20077;-68
2023/09/02 10:05:29;;;;;;;36.38;33.33;;;;;;;19.23;100.00;101865.28;4980875;28;20018;-68
2023/09/02 10:08:05;;;;;;;36.90;33.63;;;;;;;19.23;100.00;101868.78;4980635;28;20027;-68
2023/09/02 10:10:34;;;;;;;35.65;32.70;;;;;;;19.24;100.00;101867.03;4983362;28;20022;-68
2023/09/02 10:13:00;;;;;;;34.72;31.80;;;;;;;19.26;100.00;101874.09;4977889;28;20037;-68
2023/09/02 10:15:27;;;;;;;35.95;32.78;;;;;;;19.27;100.00;101872.31;4980669;28;20034;-68
2023/09/02 10:17:59;;;;;;;35.58;32.47;;;;;;;19.30;100.00;101867.13;4976880;28;20080;-68
2023/09/02 10:20:30;;;;;;;36.50;33.35;;;;;;;19.35;100.00;101872.44;4980616;28;20088;-69
2023/09/02 10:23:06;;;;;;;34.67;31.77;;;;;;;19.40;100.00;101892.66;4989252;28;20379;-68
2023/09/02 10:26:13;;;;;;;36.20;33.13;;;;;;;19.47;100.00;101892.69;4983880;28;20034;-68
2023/09/02 10:28:40;;;;;;;33.30;30.40;;;;;;;19.56;100.00;101882.28;4980195;28;20104;-67
2023/09/02 10:31:19;;;;;;;31.95;29.20;;;;;;;19.63;100.00;101886.75;4986814;28;20546;-67
2023/09/02 10:33:53;;;;;;;32.13;29.30;;;;;;;19.71;100.00;101884.22;4976166;28;20054;-68
2023/09/02 10:36:22;;;;;;;29.67;27.17;;;;;;;19.75;100.00;101893.88;4974215;28;20113;-68
2023/09/02 10:38:49;;;;;;;32.42;29.17;;;;;;;19.77;100.00;101889.53;4971022;28;20439;-68
2023/09/02 10:41:15;;;;;;;30.10;27.60;;;;;;;19.76;100.00;101890.41;4973811;28;20081;-68
2023/09/02 10:43:42;;;;;;;30.80;28.02;;;;;;;19.77;100.00;101896.56;4985008;28;20033;-68
2023/09/02 10:46:09;;;;;;;29.10;26.65;;;;;;;19.79;100.00;101900.06;4987682;28;20537;-68
2023/09/02 10:48:37;;;;;;;32.97;30.00;;;;;;;19.79;100.00;101900.06;4976253;28;20046;-67
2023/09/02 10:51:04;;;;;;;29.73;27.13;;;;;;;19.80;100.00;101907.09;4980531;28;20065;-68
2023/09/02 10:53:47;;;;;;;31.42;28.70;;;;;;;19.91;100.00;101899.31;4975111;28;20418;-67
2023/09/02 10:56:33;;;;;;;32.42;29.55;;;;;;;19.99;100.00;101907.25;4974725;28;20031;-67
2023/09/02 10:59:00;;;;;;;33.80;30.80;;;;;;;20.01;100.00;101898.53;4976844;28;20469;-67